Time;durP1;ratioP1;P1;durP2;ratioP2;P2;SDS_P1;SDS_P2;PMS_P1;PMS_P2;Temp;Humidity;BMP_temperature;BMP_pressure;BME280_temperature;BME280_humidity;BME280_pressure;Samples;Min_cycle;Max_cycle;Signal;HPM_P1;HPM_P2
2022/06/15 00:01:53;;;;;;;4.62;2.10;;;;;;;15.31;65.00;99467.66;1773155;80;21061;-80
2022/06/15 00:04:20;;;;;;;8.83;2.25;;;;;;;15.24;65.71;99466.20;1777614;80;21058;-79
2022/06/15 00:06:46;;;;;;;6.70;2.00;;;;;;;15.21;65.04;99472.86;1786802;80;21057;-79
2022/06/15 00:09:13;;;;;;;7.25;2.40;;;;;;;15.15;65.43;99464.39;1775686;80;21499;-79
2022/06/15 00:11:43;;;;;;;4.35;2.30;;;;;;;15.12;65.55;99470.61;1769171;80;21014;-79
2022/06/15 00:14:18;;;;;;;4.97;2.15;;;;;;;15.11;65.64;99468.88;1773829;80;21012;-80
2022/06/15 00:16:45;;;;;;;5.28;1.95;;;;;;;15.12;65.77;99471.91;1774027;80;21061;-79
2022/06/15 00:19:12;;;;;;;7.30;2.20;;;;;;;15.12;65.13;99470.61;1783990;77;21027;-80
2022/06/15 00:21:39;;;;;;;3.65;2.02;;;;;;;15.09;65.36;99475.95;1791180;78;21011;-79
2022/06/15 00:24:06;;;;;;;4.45;1.98;;;;;;;15.04;65.17;99468.70;1778046;79;21047;-79
2022/06/15 00:26:33;;;;;;;7.22;2.67;;;;;;;15.03;65.87;99468.32;1788480;80;21022;-79
2022/06/15 00:29:00;;;;;;;5.67;2.00;;;;;;;15.01;66.00;99459.20;1776289;80;21006;-81
2022/06/15 00:31:27;;;;;;;5.80;2.65;;;;;;;15.00;65.86;99465.80;1770488;80;21052;-79
2022/06/15 00:33:54;;;;;;;5.28;2.37;;;;;;;14.98;66.76;99470.24;1788554;80;21471;-80
2022/06/15 00:36:22;;;;;;;6.67;2.40;;;;;;;14.98;67.05;99468.50;1792440;80;20999;-79
2022/06/15 00:38:54;;;;;;;5.17;2.30;;;;;;;14.99;67.33;99471.97;1789764;80;21050;-79
2022/06/15 00:41:26;;;;;;;5.28;2.50;;;;;;;14.99;68.31;99468.04;1789900;80;20996;-79
2022/06/15 00:43:57;;;;;;;5.22;2.25;;;;;;;14.98;67.64;99472.43;1786082;80;21027;-81
2022/06/15 00:46:38;;;;;;;5.30;2.52;;;;;;;14.97;68.33;99473.33;1787165;80;21008;-80
2022/06/15 00:49:13;;;;;;;9.05;2.50;;;;;;;14.94;67.94;99466.03;1772240;80;21017;-81
2022/06/15 00:51:40;;;;;;;5.60;1.80;;;;;;;14.90;66.59;99463.55;1774177;80;21015;-79
2022/06/15 00:54:09;;;;;;;5.35;2.08;;;;;;;14.87;67.07;99468.03;1783762;80;21043;-79
2022/06/15 00:56:38;;;;;;;5.62;2.30;;;;;;;14.85;67.24;99465.93;1753878;81;21015;-79
2022/06/15 00:59:17;;;;;;;5.22;2.10;;;;;;;14.83;68.14;99467.75;1771507;81;21034;-81
2022/06/15 01:01:45;;;;;;;4.08;1.87;;;;;;;14.81;66.86;99473.03;1768982;80;20967;-79
2022/06/15 01:04:12;;;;;;;3.87;1.98;;;;;;;14.77;67.07;99468.82;1767035;81;21058;-79
2022/06/15 01:07:04;;;;;;;4.55;2.05;;;;;;;14.76;66.58;99461.86;1763197;81;21063;-79
2022/06/15 01:09:36;;;;;;;4.50;2.10;;;;;;;14.75;67.79;99465.41;1764797;81;22195;-80
2022/06/15 01:12:26;;;;;;;6.80;2.10;;;;;;;14.77;68.03;99470.59;1769129;81;21476;-79
2022/06/15 01:15:19;;;;;;;4.28;2.02;;;;;;;14.78;67.98;99465.74;1758823;81;21043;-79
2022/06/15 01:18:01;;;;;;;4.45;2.37;;;;;;;14.82;68.38;99468.64;1769637;80;21064;-81
2022/06/15 01:20:57;;;;;;;6.50;2.77;;;;;;;14.86;68.63;99471.55;1756639;80;21639;-79
2022/06/15 01:24:08;;;;;;;5.12;2.65;;;;;;;14.87;68.82;99472.80;1772588;80;21007;-79
2022/06/15 01:27:20;;;;;;;4.92;2.40;;;;;;;14.86;68.41;99467.63;1746177;81;21013;-80
2022/06/15 01:30:14;;;;;;;6.62;2.80;;;;;;;14.83;69.10;99471.21;1769365;81;21002;-80
2022/06/15 01:33:22;;;;;;;5.35;2.47;;;;;;;14.80;69.90;99470.03;1769788;81;21521;-79
2022/06/15 01:36:06;;;;;;;4.95;2.40;;;;;;;14.75;69.90;99470.64;1760248;81;20982;-79
2022/06/15 01:39:08;;;;;;;9.75;2.62;;;;;;;14.69;69.84;99469.56;1757845;81;20975;-80
2022/06/15 01:42:00;;;;;;;6.33;2.92;;;;;;;14.65;68.74;99464.88;1735069;81;21026;-79
2022/06/15 01:44:38;;;;;;;5.37;2.70;;;;;;;14.58;68.96;99465.16;1775930;80;21039;-78
2022/06/15 01:47:09;;;;;;;3.58;2.00;;;;;;;14.52;69.62;99457.91;1757062;81;20978;-80
2022/06/15 01:49:45;;;;;;;4.00;2.17;;;;;;;14.47;69.96;99461.59;1761100;80;21495;-79
2022/06/15 01:52:15;;;;;;;6.33;2.60;;;;;;;14.42;69.44;99459.11;1766132;81;21530;-79
2022/06/15 01:54:47;;;;;;;6.53;2.35;;;;;;;14.37;70.26;99465.44;1790266;80;21070;-79
2022/06/15 01:57:18;;;;;;;8.78;2.60;;;;;;;14.29;68.64;99462.63;1762035;81;21034;-79
2022/06/15 01:59:53;;;;;;;5.42;2.60;;;;;;;14.21;70.24;99466.42;1794204;79;20956;-82
2022/06/15 02:03:02;;;;;;;5.47;2.40;;;;;;;14.12;70.67;99472.36;1742540;81;21027;-81
2022/06/15 02:06:04;;;;;;;7.03;3.10;;;;;;;14.06;69.71;99469.92;1752916;81;21546;-80
2022/06/15 02:08:44;;;;;;;6.47;3.00;;;;;;;13.99;70.86;99468.44;1766100;81;21007;-80
2022/06/15 02:11:26;;;;;;;4.90;2.60;;;;;;;13.92;71.28;99468.22;1743648;81;21530;-83
2022/06/15 02:14:23;;;;;;;6.20;2.85;;;;;;;13.85;70.00;99464.12;1770809;81;20996;-80
2022/06/15 02:17:05;;;;;;;5.10;2.55;;;;;;;13.77;69.80;99466.98;1768429;79;20999;-80
2022/06/15 02:19:42;;;;;;;10.32;2.87;;;;;;;13.70;70.35;99480.67;1751394;81;21028;-79
2022/06/15 02:22:17;;;;;;;6.75;2.90;;;;;;;13.65;70.60;99490.43;1763974;81;20995;-82
2022/06/15 02:24:47;;;;;;;7.47;3.00;;;;;;;13.59;69.88;99490.63;1750731;81;21066;-79
2022/06/15 02:27:15;;;;;;;5.45;2.45;;;;;;;13.51;70.33;99483.48;1748663;81;21014;-79
2022/06/15 02:29:48;;;;;;;11.08;3.30;;;;;;;13.47;70.09;99487.09;1779257;80;21015;-80
2022/06/15 02:32:18;;;;;;;5.60;2.62;;;;;;;13.45;70.78;99493.66;1784657;79;21015;-79
2022/06/15 02:34:45;;;;;;;8.88;2.40;;;;;;;13.39;71.36;99490.36;1742667;81;21558;-79
2022/06/15 02:37:12;;;;;;;7.28;2.55;;;;;;;13.37;71.10;99498.69;1777852;79;21010;-79
2022/06/15 02:39:39;;;;;;;4.17;2.40;;;;;;;13.38;71.28;99497.34;1752708;81;20983;-81
2022/06/15 02:42:29;;;;;;;8.48;2.45;;;;;;;13.39;71.61;99495.16;1766266;81;21483;-79
2022/06/15 02:45:06;;;;;;;6.53;2.85;;;;;;;13.44;71.73;99495.00;1743455;81;21043;-80
2022/06/15 02:47:38;;;;;;;7.97;2.90;;;;;;;13.46;72.31;99499.27;1744548;81;21019;-79
2022/06/15 02:50:08;;;;;;;7.22;3.02;;;;;;;13.47;72.66;99493.16;1714272;83;20973;-80
2022/06/15 02:52:42;;;;;;;6.17;3.00;;;;;;;13.46;70.96;99499.73;1779817;80;22089;-80
2022/06/15 02:55:11;;;;;;;9.93;2.85;;;;;;;13.43;73.54;99499.81;1757260;81;21759;-80
2022/06/15 02:57:49;;;;;;;7.83;3.55;;;;;;;13.39;72.42;99499.08;1766852;81;20956;-79
2022/06/15 03:00:21;;;;;;;8.68;3.22;;;;;;;13.33;72.55;99502.72;1758110;80;20948;-80
2022/06/15 03:02:49;;;;;;;6.87;3.17;;;;;;;13.29;74.65;99506.33;1766861;81;21064;-79
2022/06/15 03:05:17;;;;;;;5.58;3.00;;;;;;;13.26;73.60;99502.91;1753087;81;21019;-80
2022/06/15 03:07:45;;;;;;;9.25;3.42;;;;;;;13.23;71.62;99509.52;1755943;81;21118;-80
2022/06/15 03:10:13;;;;;;;9.53;3.50;;;;;;;13.17;73.33;99507.97;1754603;81;22161;-80
2022/06/15 03:12:40;;;;;;;9.65;3.58;;;;;;;13.14;73.23;99509.34;1761364;81;20983;-80
2022/06/15 03:15:10;;;;;;;5.90;3.15;;;;;;;13.08;73.95;99502.53;1760867;81;21007;-80
2022/06/15 03:17:37;;;;;;;9.10;3.33;;;;;;;13.07;72.61;99507.80;1752101;81;21004;-80
2022/06/15 03:20:09;;;;;;;10.15;3.45;;;;;;;13.05;74.26;99510.90;1757000;81;21540;-80
2022/06/15 03:22:37;;;;;;;8.55;2.60;;;;;;;13.07;74.88;99516.93;1753203;81;21019;-82
2022/06/15 03:25:07;;;;;;;9.48;3.65;;;;;;;13.09;74.15;99517.74;1753873;81;21071;-80
2022/06/15 03:27:34;;;;;;;7.95;3.20;;;;;;;13.13;75.99;99520.70;1764077;81;20936;-81
2022/06/15 03:30:04;;;;;;;6.58;3.30;;;;;;;13.17;74.50;99515.80;1785881;80;21062;-80
2022/06/15 03:32:31;;;;;;;5.78;3.12;;;;;;;13.21;74.94;99512.19;1751110;81;21007;-80
2022/06/15 03:35:01;;;;;;;5.67;3.27;;;;;;;13.26;74.45;99515.51;1753903;81;21075;-79
2022/06/15 03:37:29;;;;;;;6.12;2.87;;;;;;;13.33;74.43;99517.54;1759489;81;21535;-80
2022/06/15 03:39:58;;;;;;;4.53;3.02;;;;;;;13.39;74.54;99525.61;1766594;81;21558;-80
2022/06/15 03:42:26;;;;;;;4.87;2.90;;;;;;;13.46;75.23;99521.94;1758669;81;20987;-80
2022/06/15 03:44:54;;;;;;;7.10;3.30;;;;;;;13.53;74.53;99522.16;1746062;81;21035;-79
2022/06/15 03:47:23;;;;;;;11.75;3.20;;;;;;;13.59;74.33;99519.79;1752794;81;21074;-79
2022/06/15 03:49:53;;;;;;;7.03;3.30;;;;;;;13.66;73.69;99526.55;1764974;81;21039;-82
2022/06/15 03:52:24;;;;;;;9.18;3.65;;;;;;;13.73;73.68;99525.47;1758867;81;21031;-85
2022/06/15 03:54:50;;;;;;;4.58;3.00;;;;;;;13.80;73.46;99530.04;1766526;81;21472;-79
2022/06/15 03:57:20;;;;;;;6.67;3.72;;;;;;;13.85;73.67;99525.08;1758020;80;21011;-80
2022/06/15 03:59:48;;;;;;;8.90;3.62;;;;;;;13.90;72.75;99531.45;1744734;81;21015;-80
2022/06/15 04:02:16;;;;;;;12.85;3.70;;;;;;;13.90;73.13;99528.84;1754848;81;21010;-80
2022/06/15 04:04:43;;;;;;;12.60;3.80;;;;;;;13.91;73.10;99531.88;1759731;81;21004;-80
2022/06/15 04:09:56;;;;;;;8.53;3.72;;;;;;;13.97;73.40;99543.44;1766495;81;21487;-80
2022/06/15 04:12:23;;;;;;;6.28;3.90;;;;;;;13.99;71.37;99540.78;1763276;81;21030;-81
2022/06/15 04:14:50;;;;;;;9.15;4.15;;;;;;;13.96;72.31;99540.87;1761839;81;21032;-79
2022/06/15 04:17:30;;;;;;;8.83;3.47;;;;;;;13.96;71.95;99541.72;1720308;81;21063;-78
2022/06/15 04:22:48;;;;;;;8.58;3.30;;;;;;;13.91;72.77;99549.71;1755905;81;21019;-80
2022/06/15 04:25:15;;;;;;;15.28;3.92;;;;;;;13.86;72.89;99546.83;1759164;80;21012;-80
2022/06/15 04:27:43;;;;;;;16.75;3.80;;;;;;;13.86;72.22;99545.52;1779142;80;21038;-83
2022/06/15 04:30:13;;;;;;;8.83;3.77;;;;;;;13.80;72.53;99549.64;1753395;81;21064;-78
2022/06/15 04:32:40;;;;;;;9.88;3.60;;;;;;;13.79;72.31;99546.64;1768310;81;20982;-79
2022/06/15 04:35:08;;;;;;;6.20;3.42;;;;;;;13.78;72.37;99548.38;1758201;81;21043;-78
2022/06/15 04:37:37;;;;;;;8.10;3.00;;;;;;;13.81;72.84;99550.06;1767751;81;21517;-79
2022/06/15 04:40:08;;;;;;;7.42;3.17;;;;;;;13.88;73.07;99550.25;1756987;81;21055;-79
2022/06/15 04:42:36;;;;;;;5.80;2.92;;;;;;;13.96;72.64;99539.09;1762619;80;22085;-79
2022/06/15 04:45:05;;;;;;;12.07;3.58;;;;;;;14.02;72.57;99545.44;1766383;80;21062;-79
2022/06/15 04:47:33;;;;;;;12.55;3.40;;;;;;;14.12;72.34;99546.00;1766298;81;20976;-79
2022/06/15 04:50:01;;;;;;;8.10;3.33;;;;;;;14.23;72.30;99551.75;1734931;81;21082;-79
2022/06/15 04:52:30;;;;;;;6.37;3.15;;;;;;;14.32;71.75;99546.65;1781650;80;21008;-79
2022/06/15 04:54:57;;;;;;;6.53;3.55;;;;;;;14.37;71.23;99551.75;1777235;80;21059;-79
2022/06/15 04:57:26;;;;;;;5.60;3.40;;;;;;;14.37;70.99;99542.14;1769352;80;21000;-79
2022/06/15 04:59:53;;;;;;;11.48;3.83;;;;;;;14.38;70.68;99545.13;1783666;80;20956;-80
2022/06/15 05:02:20;;;;;;;7.40;3.20;;;;;;;14.44;70.49;99544.08;1769906;80;21010;-81
2022/06/15 05:04:48;;;;;;;7.65;3.25;;;;;;;14.45;71.48;99541.42;1775688;80;20968;-80
2022/06/15 05:07:15;;;;;;;9.65;3.67;;;;;;;14.50;71.18;99540.83;1762761;81;21095;-80
2022/06/15 05:09:47;;;;;;;6.50;3.17;;;;;;;14.58;70.62;99546.26;1785724;80;21007;-80
2022/06/15 05:12:11;;;;;;;8.23;3.27;;;;;;;14.64;70.09;99543.43;1775458;80;21346;-79
2022/06/15 05:14:38;;;;;;;6.78;3.45;;;;;;;14.60;70.35;99544.45;1773524;81;20983;-80
2022/06/15 05:17:06;;;;;;;8.58;4.08;;;;;;;14.63;69.82;99544.36;1768733;80;21007;-79
2022/06/15 05:19:33;;;;;;;6.47;2.90;;;;;;;14.69;69.66;99541.06;1769437;81;20964;-79
2022/06/15 05:22:01;;;;;;;10.75;3.58;;;;;;;14.77;69.51;99546.49;1758609;81;21019;-80
2022/06/15 05:24:30;;;;;;;7.97;3.10;;;;;;;14.82;69.55;99545.43;1767712;81;21012;-79
2022/06/15 05:26:59;;;;;;;6.15;3.15;;;;;;;14.88;69.92;99545.64;1753904;81;21031;-80
2022/06/15 05:29:26;;;;;;;5.97;2.70;;;;;;;14.99;69.85;99546.58;1768082;81;20995;-79
2022/06/15 05:31:55;;;;;;;9.65;3.60;;;;;;;15.07;70.00;99543.23;1759332;81;20999;-80
2022/06/15 05:34:23;;;;;;;5.70;3.25;;;;;;;15.17;69.63;99549.84;1753927;81;20992;-79
2022/06/15 05:36:50;;;;;;;12.33;3.40;;;;;;;15.31;69.71;99552.79;1758827;80;21066;-79
2022/06/15 05:39:17;;;;;;;8.68;3.65;;;;;;;15.43;69.29;99554.56;1763883;81;21007;-79
2022/06/15 05:41:44;;;;;;;7.83;3.52;;;;;;;15.51;68.82;99552.50;1765717;81;21094;-79
2022/06/15 05:46:44;;;;;;;7.00;3.40;;;;;;;15.66;67.87;99551.08;1766035;81;21028;-79
2022/06/15 05:49:25;;;;;;;6.80;3.35;;;;;;;15.71;67.73;99546.49;1743308;81;21065;-79
2022/06/15 05:51:52;;;;;;;5.40;2.98;;;;;;;15.79;67.35;99545.77;1748084;81;20991;-79
2022/06/15 05:54:21;;;;;;;10.10;3.10;;;;;;;15.91;67.14;99549.20;1747062;81;21019;-80
2022/06/15 05:56:48;;;;;;;8.33;3.10;;;;;;;15.99;67.08;99551.53;1745863;81;21019;-81
2022/06/15 05:59:15;;;;;;;5.33;3.00;;;;;;;16.14;66.55;99550.54;1761175;81;21067;-78
2022/06/15 06:01:42;;;;;;;10.90;3.12;;;;;;;16.27;66.49;99559.16;1764298;81;21130;-81
2022/06/15 06:04:15;;;;;;;5.62;2.67;;;;;;;16.41;65.90;99554.66;1753469;81;21003;-79
2022/06/15 06:06:42;;;;;;;4.42;3.00;;;;;;;16.54;66.00;99550.20;1761878;81;21031;-79
2022/06/15 06:09:12;;;;;;;8.85;3.30;;;;;;;16.64;64.77;99552.82;1747288;81;20996;-79
2022/06/15 06:11:39;;;;;;;7.47;4.22;;;;;;;16.74;64.46;99555.91;1762725;81;21621;-79
2022/06/15 06:14:08;;;;;;;7.12;3.37;;;;;;;16.83;64.81;99556.83;1754130;81;21059;-78
2022/06/15 06:16:35;;;;;;;7.87;3.10;;;;;;;16.92;64.21;99555.12;1754242;81;21015;-78
2022/06/15 06:19:02;;;;;;;10.75;3.05;;;;;;;17.01;63.80;99548.61;1750776;81;22128;-79
2022/06/15 06:21:28;;;;;;;5.97;2.77;;;;;;;17.13;64.30;99551.15;1734669;81;21026;-79
2022/06/15 06:23:55;;;;;;;6.00;2.72;;;;;;;17.23;63.96;99555.06;1772853;80;21032;-81
2022/06/15 06:26:26;;;;;;;5.80;2.60;;;;;;;17.34;63.34;99559.38;1780365;79;21061;-79
2022/06/15 06:28:53;;;;;;;7.40;3.00;;;;;;;17.40;62.65;99553.84;1772825;80;21001;-78
2022/06/15 06:31:20;;;;;;;13.08;3.47;;;;;;;17.50;62.49;99554.27;1758507;80;20989;-81
2022/06/15 06:33:49;;;;;;;9.23;3.65;;;;;;;17.62;62.66;99557.64;1780734;80;21620;-78
2022/06/15 06:36:27;;;;;;;5.92;2.50;;;;;;;17.78;62.38;99551.67;1778164;80;21029;-78
2022/06/15 06:38:53;;;;;;;7.85;2.80;;;;;;;17.92;62.07;99556.30;1781476;80;20988;-80
2022/06/15 06:41:23;;;;;;;4.40;2.62;;;;;;;18.06;61.76;99553.86;1743743;81;21177;-80
2022/06/15 06:43:51;;;;;;;9.38;3.30;;;;;;;18.18;61.36;99550.62;1758748;80;21054;-83
2022/06/15 06:46:18;;;;;;;6.67;2.50;;;;;;;18.32;60.95;99553.89;1746518;80;21015;-78
2022/06/15 06:48:45;;;;;;;5.03;2.70;;;;;;;18.38;60.05;99543.52;1735349;81;21010;-81
2022/06/15 06:51:12;;;;;;;5.03;2.40;;;;;;;18.42;60.01;99547.26;1756386;81;21067;-80
2022/06/15 06:53:40;;;;;;;4.55;2.45;;;;;;;18.49;59.20;99549.95;1756682;81;20980;-79
2022/06/15 06:56:10;;;;;;;5.67;2.37;;;;;;;18.54;58.82;99551.50;1779761;80;21531;-78
2022/06/15 06:58:38;;;;;;;6.45;2.40;;;;;;;18.63;57.32;99551.05;1744305;80;20968;-81
2022/06/15 07:01:05;;;;;;;8.45;2.50;;;;;;;18.68;57.52;99552.95;1780798;80;20987;-79
2022/06/15 07:03:32;;;;;;;11.03;4.92;;;;;;;18.75;58.01;99546.94;1776656;80;21015;-79
2022/06/15 07:06:01;;;;;;;10.82;2.77;;;;;;;18.90;57.87;99550.13;1770785;80;20979;-81
2022/06/15 07:08:28;;;;;;;4.75;2.50;;;;;;;19.04;57.56;99546.30;1780038;80;21031;-80
2022/06/15 07:10:55;;;;;;;6.72;2.40;;;;;;;19.19;56.87;99556.95;1774236;80;20972;-80
2022/06/15 07:13:22;;;;;;;5.22;2.55;;;;;;;19.30;54.77;99556.36;1773966;80;21526;-80
2022/06/15 07:15:49;;;;;;;6.58;2.42;;;;;;;19.38;55.56;99557.67;1775002;80;21062;-80
2022/06/15 07:18:17;;;;;;;7.22;2.35;;;;;;;19.50;55.44;99556.16;1739958;81;21034;-80
2022/06/15 07:20:44;;;;;;;6.40;2.45;;;;;;;19.57;53.15;99550.07;1790911;80;21005;-79
2022/06/15 07:23:11;;;;;;;4.67;2.10;;;;;;;19.68;54.51;99550.34;1783155;80;20983;-84
2022/06/15 07:25:38;;;;;;;6.92;2.40;;;;;;;19.77;52.35;99552.95;1787884;80;20998;-80
2022/06/15 07:28:05;;;;;;;7.45;2.33;;;;;;;19.86;54.32;99552.45;1793435;80;21007;-81
2022/06/15 07:30:31;;;;;;;4.12;2.42;;;;;;;20.00;52.69;99558.27;1791221;80;21042;-83
2022/06/15 07:32:58;;;;;;;4.85;2.60;;;;;;;20.14;53.52;99560.13;1785284;80;21051;-82
2022/06/15 07:35:30;;;;;;;7.00;2.80;;;;;;;20.26;53.50;99558.09;1782781;79;22152;-82
2022/06/15 07:37:58;;;;;;;8.05;2.33;;;;;;;20.36;51.54;99555.77;1788443;80;21039;-81
2022/06/15 07:40:25;;;;;;;6.00;2.40;;;;;;;20.41;51.10;99557.21;1775551;79;20998;-81
2022/06/15 07:42:54;;;;;;;4.42;2.33;;;;;;;20.46;50.63;99556.45;1786689;80;20998;-82
2022/06/15 07:45:24;;;;;;;4.83;2.00;;;;;;;20.50;49.75;99553.17;1795577;80;21377;-81
2022/06/15 07:50:41;;;;;;;7.15;3.10;;;;;;;20.62;51.03;99547.67;1788428;80;20919;-81
2022/06/15 07:53:13;;;;;;;6.10;2.30;;;;;;;20.69;50.34;99549.02;1788273;80;21086;-82
2022/06/15 07:55:44;;;;;;;6.28;2.37;;;;;;;20.81;50.24;99554.88;1790599;80;21003;-81
2022/06/15 07:58:12;;;;;;;5.47;2.10;;;;;;;20.95;50.37;99547.89;1787485;80;21459;-82
2022/06/15 08:00:43;;;;;;;6.10;3.30;;;;;;;21.09;50.36;99550.56;1793841;80;20971;-82
2022/06/15 08:03:11;;;;;;;9.45;3.80;;;;;;;21.21;50.65;99551.61;1758906;80;20997;-82
2022/06/15 08:05:45;;;;;;;5.45;2.45;;;;;;;21.34;50.68;99553.84;1785149;80;21019;-80
2022/06/15 08:08:22;;;;;;;7.85;3.72;;;;;;;21.45;49.45;99556.70;1780387;79;20983;-81
2022/06/15 08:10:50;;;;;;;10.53;2.77;;;;;;;21.54;49.85;99559.23;1785345;80;21000;-82
2022/06/15 08:13:19;;;;;;;14.75;2.70;;;;;;;21.68;49.92;99548.26;1793667;80;21050;-82
2022/06/15 08:15:48;;;;;;;5.42;2.17;;;;;;;21.78;49.19;99550.69;1790161;79;21094;-84
2022/06/15 08:18:20;;;;;;;8.53;3.02;;;;;;;21.88;49.24;99546.98;1789407;80;21204;-82
2022/06/15 08:20:58;;;;;;;4.55;1.92;;;;;;;21.98;47.92;99552.05;1782717;80;21139;-80
2022/06/15 08:23:29;;;;;;;7.17;2.30;;;;;;;22.05;48.08;99546.25;1782354;80;20994;-81
2022/06/15 08:25:58;;;;;;;6.37;1.98;;;;;;;;;;1739711;80;21158;-83
2022/06/15 08:28:31;;;;;;;6.92;2.70;;;;;;;22.15;46.11;99549.15;1771532;80;21181;-83
2022/06/15 08:30:59;;;;;;;5.10;2.40;;;;;;;22.19;45.23;99549.32;1779918;80;22072;-83
2022/06/15 08:33:26;;;;;;;4.10;2.40;;;;;;;22.26;45.68;99544.97;1779329;80;21342;-81
2022/06/15 08:35:53;;;;;;;5.62;1.95;;;;;;;22.38;45.90;99540.17;1777740;80;21522;-81
2022/06/15 08:38:23;;;;;;;6.53;2.30;;;;;;;22.52;45.11;99543.22;1777309;80;21011;-81
2022/06/15 08:40:58;;;;;;;3.15;1.60;;;;;;;22.61;44.98;99538.64;1785571;80;21054;-82
2022/06/15 08:43:39;;;;;;;4.35;1.95;;;;;;;22.72;43.45;99542.73;1777135;80;21039;-81
2022/06/15 08:46:57;;;;;;;7.97;2.47;;;;;;;22.80;43.50;99548.36;1763239;80;20967;-85
2022/06/15 08:49:54;;;;;;;4.37;2.02;;;;;;;22.86;42.09;99547.09;1791023;80;21067;-85
2022/06/15 08:52:35;;;;;;;4.60;2.08;;;;;;;22.84;42.50;99549.84;1772545;80;21016;-86
2022/06/15 08:55:42;;;;;;;3.10;2.00;;;;;;;22.87;42.58;99546.61;1767491;80;21071;-85
2022/06/15 08:58:35;;;;;;;4.37;2.40;;;;;;;22.84;42.36;99539.73;1777243;80;21063;-84
2022/06/15 09:01:28;;;;;;;7.03;2.10;;;;;;;22.94;43.40;99535.48;1775446;80;21002;-85
2022/06/15 09:04:00;;;;;;;4.50;2.37;;;;;;;23.14;43.43;99535.90;1779414;80;21007;-85
2022/06/15 09:07:01;;;;;;;3.65;1.92;;;;;;;23.30;42.80;99527.70;1788180;80;21738;-85
2022/06/15 09:09:54;;;;;;;5.25;2.15;;;;;;;23.44;42.92;99536.88;1779313;80;21055;-85
2022/06/15 09:12:50;;;;;;;5.40;2.50;;;;;;;23.61;43.00;99538.31;1776769;80;21031;-85
2022/06/15 09:15:44;;;;;;;5.35;1.90;;;;;;;23.72;40.15;99536.22;1777035;80;20992;-85
2022/06/15 09:18:29;;;;;;;4.62;1.80;;;;;;;23.79;40.76;99533.02;1777411;80;21001;-84
2022/06/15 09:21:01;;;;;;;5.72;2.22;;;;;;;23.92;41.28;99537.45;1744234;80;20992;-85
2022/06/15 09:23:36;;;;;;;3.77;2.00;;;;;;;24.04;40.61;99533.05;1751320;80;21046;-84
2022/06/15 09:26:09;;;;;;;6.20;1.87;;;;;;;24.10;40.09;99537.91;1748919;81;21097;-85
2022/06/15 09:28:47;;;;;;;2.60;1.57;;;;;;;24.20;38.59;99540.23;1755233;80;21003;-86
2022/06/15 09:31:25;;;;;;;8.45;2.10;;;;;;;24.23;39.15;99534.67;1753701;80;21011;-84
2022/06/15 09:33:59;;;;;;;7.37;1.95;;;;;;;24.26;39.36;99535.78;1741344;81;21010;-86
2022/06/15 09:36:37;;;;;;;4.67;1.80;;;;;;;24.38;39.08;99533.53;1757179;80;21026;-84
2022/06/15 09:39:05;;;;;;;4.55;1.85;;;;;;;24.51;38.77;99531.30;1757400;80;20995;-85
2022/06/15 09:42:06;;;;;;;5.10;1.90;;;;;;;24.57;37.80;99533.48;1756891;80;21034;-84
2022/06/15 09:44:55;;;;;;;3.17;1.80;;;;;;;24.68;38.13;99531.35;1750970;81;21795;-86
2022/06/15 09:48:02;;;;;;;6.40;1.90;;;;;;;24.83;38.26;99534.17;1735727;80;21378;-84
2022/06/15 09:50:43;;;;;;;4.03;1.80;;;;;;;24.97;38.00;99527.28;1759237;81;21073;-84
2022/06/15 09:53:30;;;;;;;5.10;1.82;;;;;;;25.04;37.13;99527.64;1758939;81;21037;-85
2022/06/15 09:56:06;;;;;;;5.10;1.85;;;;;;;25.08;36.81;99526.92;1760616;80;20971;-85
2022/06/15 09:58:47;;;;;;;4.97;2.10;;;;;;;25.20;36.55;99525.95;1757041;81;21027;-85
2022/06/15 10:01:15;;;;;;;5.10;1.95;;;;;;;25.22;37.76;99521.87;1753546;80;21049;-86
2022/06/15 10:03:50;;;;;;;3.42;1.77;;;;;;;25.32;37.24;99514.84;1725528;82;21085;-85
2022/06/15 10:06:31;;;;;;;6.10;2.02;;;;;;;25.42;37.03;99517.13;1745518;81;21011;-84
2022/06/15 10:09:01;;;;;;;5.97;1.90;;;;;;;25.50;36.84;99516.03;1744655;81;21038;-85
2022/06/15 10:11:42;;;;;;;6.08;2.90;;;;;;;25.64;36.92;99507.42;1742260;81;21109;-86
2022/06/15 10:14:32;;;;;;;15.00;8.80;;;;;;;25.78;36.95;99506.67;1742748;81;21074;-85
2022/06/15 10:17:23;;;;;;;5.58;2.10;;;;;;;25.93;37.20;99500.59;1728705;81;21657;-85
2022/06/15 10:19:53;;;;;;;5.33;1.85;;;;;;;26.10;36.61;99500.99;1759933;80;21019;-85
2022/06/15 10:22:34;;;;;;;3.83;1.90;;;;;;;26.13;35.40;99501.59;1771356;80;21106;-85
2022/06/15 10:25:04;;;;;;;4.47;1.70;;;;;;;26.13;35.37;99498.92;1765049;81;21078;-84
2022/06/15 10:27:36;;;;;;;5.55;1.90;;;;;;;26.13;34.71;99494.93;1761889;80;21011;-85
2022/06/15 10:30:14;;;;;;;4.03;2.00;;;;;;;26.08;32.02;99500.28;1764252;80;21007;-84
2022/06/15 10:33:05;;;;;;;3.58;1.90;;;;;;;25.90;31.66;99490.63;1785096;80;21054;-83
2022/06/15 10:35:35;;;;;;;3.70;1.80;;;;;;;25.79;33.13;99484.88;1758497;80;21082;-84
2022/06/15 10:38:06;;;;;;;4.45;1.85;;;;;;;25.73;33.79;99480.89;1778932;78;21703;-84
2022/06/15 10:40:40;;;;;;;5.58;2.20;;;;;;;25.75;33.40;99479.44;1776295;80;21078;-83
2022/06/15 10:43:18;;;;;;;5.62;2.02;;;;;;;25.85;34.40;99480.37;1757874;80;20992;-81
2022/06/15 10:45:59;;;;;;;3.47;1.57;;;;;;;26.01;35.13;99477.80;1768849;80;21008;-83
2022/06/15 10:48:45;;;;;;;2.77;1.80;;;;;;;26.18;34.60;99475.87;1776973;79;20975;-83
2022/06/15 10:51:32;;;;;;;5.65;1.98;;;;;;;26.28;34.25;99468.83;1771180;80;21187;-82
2022/06/15 10:54:22;;;;;;;2.95;1.77;;;;;;;26.36;34.73;99465.48;1764044;79;21007;-82
2022/06/15 11:02:38;;;;;;;8.30;2.00;;;;;;;26.65;33.38;99464.37;1781292;80;21023;-85
2022/06/15 11:05:13;;;;;;;2.67;1.72;;;;;;;26.74;33.81;99464.05;1786094;76;20979;-84
2022/06/15 11:07:51;;;;;;;4.33;2.00;;;;;;;26.88;32.93;99457.52;1778391;76;21015;-85
2022/06/15 11:10:37;;;;;;;4.78;1.85;;;;;;;26.96;33.00;99467.05;1786046;76;20967;-84
2022/06/15 11:13:24;;;;;;;6.70;1.90;;;;;;;26.89;30.17;99460.55;1782732;80;21035;-83
2022/06/15 11:18:46;;;;;;;4.22;1.80;;;;;;;26.93;30.71;99453.47;1768366;80;21059;-85
2022/06/15 11:21:22;;;;;;;7.45;1.92;;;;;;;27.06;31.13;99450.58;1783927;80;21068;-86
2022/06/15 11:24:13;;;;;;;7.17;2.00;;;;;;;27.11;30.03;99450.17;1773497;80;20999;-84
2022/06/15 11:26:57;;;;;;;7.05;2.00;;;;;;;27.18;30.37;99441.98;1770448;80;21053;-84
2022/06/15 11:29:33;;;;;;;2.80;1.60;;;;;;;27.23;30.90;99441.56;1777178;80;21083;-84
2022/06/15 11:32:35;;;;;;;7.17;2.12;;;;;;;27.33;30.20;99435.78;1777614;80;21044;-85
2022/06/15 11:35:10;;;;;;;8.00;2.58;;;;;;;27.41;30.62;99430.59;1779771;80;21043;-83
2022/06/15 11:38:02;;;;;;;8.73;5.25;;;;;;;27.62;30.81;99434.50;1781990;80;21011;-83
2022/06/15 11:40:51;;;;;;;4.67;2.03;;;;;;;27.92;31.25;99429.53;1770419;80;21005;-83
2022/06/15 11:43:37;;;;;;;5.62;1.77;;;;;;;28.24;31.36;99431.05;1772708;80;21051;-83
2022/06/15 11:46:43;;;;;;;3.60;1.85;;;;;;;28.53;31.48;99427.47;1773843;80;20958;-82
2022/06/15 11:49:19;;;;;;;6.25;2.02;;;;;;;28.78;30.75;99434.52;1784239;80;21014;-84
2022/06/15 11:52:09;;;;;;;3.77;1.98;;;;;;;28.87;29.74;99429.59;1787932;80;21519;-85
2022/06/15 11:55:27;;;;;;;4.28;1.70;;;;;;;28.94;27.71;99424.84;1781315;80;21054;-83
2022/06/15 11:58:02;;;;;;;3.70;1.50;;;;;;;28.85;27.67;99425.75;1782523;80;20968;-85
2022/06/15 12:00:52;;;;;;;4.85;1.87;;;;;;;28.63;27.98;99429.65;1779455;80;21003;-85
2022/06/15 12:03:33;;;;;;;3.95;1.70;;;;;;;28.57;26.48;99432.91;1756595;80;21012;-85
2022/06/15 12:06:08;;;;;;;2.80;1.70;;;;;;;28.45;28.28;99431.34;1772004;80;21003;-84
2022/06/15 12:08:43;;;;;;;2.80;1.52;;;;;;;28.34;27.75;99429.19;1777444;80;21043;-84
2022/06/15 12:14:40;;;;;;;5.33;1.95;;;;;;;27.85;27.68;99424.86;1773004;80;20973;-84
2022/06/15 12:17:19;;;;;;;5.22;2.00;;;;;;;27.66;27.85;99420.38;1748971;80;21766;-85
2022/06/15 12:20:00;;;;;;;5.22;1.90;;;;;;;27.47;28.52;99422.03;1783742;80;21009;-83
2022/06/15 12:22:37;;;;;;;6.65;1.85;;;;;;;27.40;28.97;99415.58;1761772;80;21058;-82
2022/06/15 12:25:33;;;;;;;3.58;1.80;;;;;;;27.34;29.62;99424.14;1768824;80;21004;-82
2022/06/15 12:28:26;;;;;;;4.05;1.60;;;;;;;27.35;29.45;99421.81;1758761;80;21594;-82
2022/06/15 12:30:59;;;;;;;4.90;1.60;;;;;;;27.30;29.88;99422.73;1764361;80;21023;-82
2022/06/15 12:33:40;;;;;;;4.10;1.75;;;;;;;27.27;29.67;99421.66;1762256;80;21011;-82